sensor_id;sensor_type;location;lat;lon;timestamp;pressure;altitude;pressure_sealevel;temperature;humidity
23679;BME280;12016;51.668;6.874;2022-09-29T00:03:36;99851.75;;;11.00;100.00
23679;BME280;12016;51.668;6.874;2022-09-29T00:09:39;99846.63;;;10.94;100.00
23679;BME280;12016;51.668;6.874;2022-09-29T00:15:42;99846.25;;;10.85;100.00
23679;BME280;12016;51.668;6.874;2022-09-29T00:21:44;99844.72;;;10.81;100.00
23679;BME280;12016;51.668;6.874;2022-09-29T00:27:47;99837.59;;;10.80;100.00
23679;BME280;12016;51.668;6.874;2022-09-29T00:33:48;99847.09;;;10.75;100.00
23679;BME280;12016;51.668;6.874;2022-09-29T00:39:51;99845.56;;;10.67;100.00
23679;BME280;12016;51.668;6.874;2022-09-29T00:45:54;99838.47;;;10.63;100.00
23679;BME280;12016;51.668;6.874;2022-09-29T01:04:32;99844.91;;;10.39;100.00
23679;BME280;12016;51.668;6.874;2022-09-29T01:10:34;99855.22;;;10.28;100.00
23679;BME280;12016;51.668;6.874;2022-09-29T01:16:37;99845.31;;;10.27;100.00
23679;BME280;12016;51.668;6.874;2022-09-29T01:34:59;99857.19;;;10.24;100.00
23679;BME280;12016;51.668;6.874;2022-09-29T01:41:15;99844.94;;;10.25;100.00
23679;BME280;12016;51.668;6.874;2022-09-29T01:47:23;99851.66;;;10.24;100.00
23679;BME280;12016;51.668;6.874;2022-09-29T01:53:32;99849.69;;;10.24;100.00
23679;BME280;12016;51.668;6.874;2022-09-29T01:59:44;99852.06;;;10.19;100.00
23679;BME280;12016;51.668;6.874;2022-09-29T02:06:02;99845.78;;;10.08;100.00
23679;BME280;12016;51.668;6.874;2022-09-29T02:12:06;99848.53;;;10.08;100.00
23679;BME280;12016;51.668;6.874;2022-09-29T02:18:13;99852.84;;;10.02;100.00
23679;BME280;12016;51.668;6.874;2022-09-29T02:24:16;99856.03;;;9.97;100.00
23679;BME280;12016;51.668;6.874;2022-09-29T02:30:18;99850.13;;;9.95;100.00
23679;BME280;12016;51.668;6.874;2022-09-29T02:36:34;99862.38;;;9.87;100.00
23679;BME280;12016;51.668;6.874;2022-09-29T02:56:20;99857.63;;;9.70;100.00
23679;BME280;12016;51.668;6.874;2022-09-29T03:02:25;99860.78;;;9.64;100.00
23679;BME280;12016;51.668;6.874;2022-09-29T03:08:28;99857.63;;;9.70;100.00
23679;BME280;12016;51.668;6.874;2022-09-29T03:14:29;99844.22;;;9.64;100.00
23679;BME280;12016;51.668;6.874;2022-09-29T03:20:32;99847.75;;;9.58;100.00
23679;BME280;12016;51.668;6.874;2022-09-29T03:26:34;99862.38;;;9.51;100.00
23679;BME280;12016;51.668;6.874;2022-09-29T03:32:36;99856.84;;;9.48;100.00
23679;BME280;12016;51.668;6.874;2022-09-29T03:38:38;99856.06;;;9.47;100.00
23679;BME280;12016;51.668;6.874;2022-09-29T03:44:39;99863.94;;;9.38;100.00
23679;BME280;12016;51.668;6.874;2022-09-29T03:50:41;99866.31;;;9.29;100.00
23679;BME280;12016;51.668;6.874;2022-09-29T03:56:44;99865.50;;;9.25;100.00
23679;BME280;12016;51.668;6.874;2022-09-29T04:02:46;99863.94;;;9.21;100.00
23679;BME280;12016;51.668;6.874;2022-09-29T04:08:48;99863.13;;;9.17;100.00
23679;BME280;12016;51.668;6.874;2022-09-29T04:14:50;99874.97;;;9.17;100.00
23679;BME280;12016;51.668;6.874;2022-09-29T04:20:52;99880.47;;;9.10;100.00
23679;BME280;12016;51.668;6.874;2022-09-29T04:26:55;99867.06;;;9.05;100.00
23679;BME280;12016;51.668;6.874;2022-09-29T04:32:57;99870.97;;;8.97;100.00
23679;BME280;12016;51.668;6.874;2022-09-29T04:38:58;99879.63;;;8.96;100.00
23679;BME280;12016;51.668;6.874;2022-09-29T04:45:00;99882.00;;;8.97;100.00
23679;BME280;12016;51.668;6.874;2022-09-29T04:51:03;99887.53;;;8.97;100.00
23679;BME280;12016;51.668;6.874;2022-09-29T04:57:05;99895.44;;;8.95;100.00
23679;BME280;12016;51.668;6.874;2022-09-29T05:03:06;99896.97;;;8.93;100.00
23679;BME280;12016;51.668;6.874;2022-09-29T05:09:08;99913.16;;;8.87;100.00
23679;BME280;12016;51.668;6.874;2022-09-29T05:15:10;99918.22;;;8.75;100.00
23679;BME280;12016;51.668;6.874;2022-09-29T05:21:12;99927.69;;;8.77;100.00
23679;BME280;12016;51.668;6.874;2022-09-29T05:27:27;99937.91;;;8.73;100.00
23679;BME280;12016;51.668;6.874;2022-09-29T05:33:29;99934.75;;;8.71;100.00
23679;BME280;12016;51.668;6.874;2022-09-29T05:39:30;99943.44;;;8.73;100.00
23679;BME280;12016;51.668;6.874;2022-09-29T05:45:34;99942.66;;;8.76;100.00
23679;BME280;12016;51.668;6.874;2022-09-29T05:51:36;99944.25;;;8.77;100.00
23679;BME280;12016;51.668;6.874;2022-09-29T05:57:38;99949.78;;;8.77;100.00
23679;BME280;12016;51.668;6.874;2022-09-29T06:03:40;99949.00;;;8.80;100.00
23679;BME280;12016;51.668;6.874;2022-09-29T06:09:42;99944.28;;;8.81;100.00
23679;BME280;12016;51.668;6.874;2022-09-29T06:15:44;99960.44;;;8.89;100.00
23679;BME280;12016;51.668;6.874;2022-09-29T06:21:46;99960.06;;;8.87;100.00
23679;BME280;12016;51.668;6.874;2022-09-29T06:27:47;99963.88;;;8.65;100.00
23679;BME280;12016;51.668;6.874;2022-09-29T06:33:49;99967.13;;;8.81;100.00
23679;BME280;12016;51.668;6.874;2022-09-29T06:39:52;99970.31;;;8.87;100.00
23679;BME280;12016;51.668;6.874;2022-09-29T06:45:53;99975.47;;;8.92;100.00
23679;BME280;12016;51.668;6.874;2022-09-29T06:51:55;99982.19;;;8.98;100.00
23679;BME280;12016;51.668;6.874;2022-09-29T06:57:57;99992.41;;;8.90;100.00
23679;BME280;12016;51.668;6.874;2022-09-29T07:04:03;100000.78;;;9.11;100.00
23679;BME280;12016;51.668;6.874;2022-09-29T07:10:05;100006.81;;;9.41;100.00
23679;BME280;12016;51.668;6.874;2022-09-29T07:16:09;100010.81;;;9.65;100.00
23679;BME280;12016;51.668;6.874;2022-09-29T07:22:12;100020.31;;;9.75;100.00
23679;BME280;12016;51.668;6.874;2022-09-29T07:28:14;100032.19;;;9.93;100.00
23679;BME280;12016;51.668;6.874;2022-09-29T07:34:16;100046.06;;;10.14;100.00
23679;BME280;12016;51.668;6.874;2022-09-29T07:40:22;100048.44;;;10.36;100.00
23679;BME280;12016;51.668;6.874;2022-09-29T07:46:24;100060.31;;;10.54;100.00
23679;BME280;12016;51.668;6.874;2022-09-29T07:52:26;100066.22;;;10.74;100.00
23679;BME280;12016;51.668;6.874;2022-09-29T07:58:29;100069.38;;;10.76;100.00
23679;BME280;12016;51.668;6.874;2022-09-29T08:04:33;100069.31;;;11.11;100.00
23679;BME280;12016;51.668;6.874;2022-09-29T08:10:34;100074.75;;;11.39;100.00
23679;BME280;12016;51.668;6.874;2022-09-29T08:16:44;100071.50;;;11.65;100.00
23679;BME280;12016;51.668;6.874;2022-09-29T08:22:46;100071.81;;;11.81;100.00
23679;BME280;12016;51.668;6.874;2022-09-29T08:28:48;100076.06;;;12.03;100.00
23679;BME280;12016;51.668;6.874;2022-09-29T08:34:59;100077.53;;;12.18;100.00
23679;BME280;12016;51.668;6.874;2022-09-29T08:41:03;100070.31;;;12.32;100.00
23679;BME280;12016;51.668;6.874;2022-09-29T08:47:29;100080.44;;;12.56;100.00
23679;BME280;12016;51.668;6.874;2022-09-29T08:53:44;100077.06;;;12.75;100.00
23679;BME280;12016;51.668;6.874;2022-09-29T08:59:58;100077.00;;;12.85;100.00
23679;BME280;12016;51.668;6.874;2022-09-29T09:06:13;100084.03;;;12.97;100.00
23679;BME280;12016;51.668;6.874;2022-09-29T09:12:37;100075.34;;;13.28;100.00
23679;BME280;12016;51.668;6.874;2022-09-29T09:25:31;100079.63;;;13.70;100.00
23679;BME280;12016;51.668;6.874;2022-09-29T09:31:43;100087.63;;;13.95;100.00
23679;BME280;12016;51.668;6.874;2022-09-29T09:37:49;100074.66;;;14.11;100.00
23679;BME280;12016;51.668;6.874;2022-09-29T09:44:02;100068.69;;;14.39;100.00
23679;BME280;12016;51.668;6.874;2022-09-29T09:56:18;100076.50;;;15.37;100.00
23679;BME280;12016;51.668;6.874;2022-09-29T10:02:23;100063.56;;;15.85;100.00
23679;BME280;12016;51.668;6.874;2022-09-29T10:08:33;100053.16;;;16.70;100.00
23679;BME280;12016;51.668;6.874;2022-09-29T10:14:52;100053.44;;;16.75;100.00
23679;BME280;12016;51.668;6.874;2022-09-29T10:20:55;100062.63;;;16.08;100.00
23679;BME280;12016;51.668;6.874;2022-09-29T10:26:59;100056.88;;;16.95;100.00
23679;BME280;12016;51.668;6.874;2022-09-29T10:33:04;100047.56;;;18.34;100.00
23679;BME280;12016;51.668;6.874;2022-09-29T10:39:31;100051.91;;;17.03;100.00
23679;BME280;12016;51.668;6.874;2022-09-29T10:45:46;100057.13;;;17.45;100.00
23679;BME280;12016;51.668;6.874;2022-09-29T10:57:58;100001.66;;;28.68;80.14
23679;BME280;12016;51.668;6.874;2022-09-29T11:04:05;100003.38;;;29.91;51.31
23679;BME280;12016;51.668;6.874;2022-09-29T11:10:26;100002.53;;;32.93;46.11
23679;BME280;12016;51.668;6.874;2022-09-29T11:16:32;100008.03;;;35.97;45.94
23679;BME280;12016;51.668;6.874;2022-09-29T11:22:55;100018.13;;;37.18;33.38
23679;BME280;12016;51.668;6.874;2022-09-29T11:48:46;100035.69;;;29.75;46.78
23679;BME280;12016;51.668;6.874;2022-09-29T11:55:16;100019.00;;;33.53;38.71
23679;BME280;12016;51.668;6.874;2022-09-29T12:01:35;100016.16;;;35.04;39.82
23679;BME280;12016;51.668;6.874;2022-09-29T12:08:00;100008.31;;;35.12;34.60
23679;BME280;12016;51.668;6.874;2022-09-29T12:14:11;100027.75;;;31.61;40.42
23679;BME280;12016;51.668;6.874;2022-09-29T12:20:19;100044.50;;;29.77;43.91
23679;BME280;12016;51.668;6.874;2022-09-29T12:26:25;100043.19;;;27.11;52.32
23679;BME280;12016;51.668;6.874;2022-09-29T12:32:38;100026.63;;;30.06;44.23
23679;BME280;12016;51.668;6.874;2022-09-29T12:38:43;100018.22;;;32.92;40.35
23679;BME280;12016;51.668;6.874;2022-09-29T12:50:58;100053.16;;;26.48;50.79
23679;BME280;12016;51.668;6.874;2022-09-29T12:57:09;100050.78;;;24.78;56.15
23679;BME280;12016;51.668;6.874;2022-09-29T13:03:20;100049.22;;;24.08;62.72
23679;BME280;12016;51.668;6.874;2022-09-29T13:29:09;100071.38;;;21.97;71.13
23679;BME280;12016;51.668;6.874;2022-09-29T13:35:19;100072.97;;;21.80;72.67
23679;BME280;12016;51.668;6.874;2022-09-29T13:47:31;100074.88;;;21.20;72.55
23679;BME280;12016;51.668;6.874;2022-09-29T13:53:35;100086.69;;;20.88;73.98
23679;BME280;12016;51.668;6.874;2022-09-29T14:06:15;100087.22;;;20.16;77.99
23679;BME280;12016;51.668;6.874;2022-09-29T14:12:38;100091.56;;;19.86;82.02
23679;BME280;12016;51.668;6.874;2022-09-29T14:18:53;100098.81;;;19.53;79.86
23679;BME280;12016;51.668;6.874;2022-09-29T14:31:19;100100.78;;;19.44;83.22
23679;BME280;12016;51.668;6.874;2022-09-29T14:37:23;100108.81;;;19.54;85.54
23679;BME280;12016;51.668;6.874;2022-09-29T14:43:48;100108.03;;;19.54;85.67
23679;BME280;12016;51.668;6.874;2022-09-29T14:50:20;100119.78;;;19.40;82.13
23679;BME280;12016;51.668;6.874;2022-09-29T14:57:22;100121.22;;;19.44;81.02
23679;BME280;12016;51.668;6.874;2022-09-29T15:03:42;100124.13;;;19.07;84.16
23679;BME280;12016;51.668;6.874;2022-09-29T15:09:50;100143.47;;;18.67;86.03
23679;BME280;12016;51.668;6.874;2022-09-29T15:16:03;100144.47;;;18.35;87.61
23679;BME280;12016;51.668;6.874;2022-09-29T15:28:37;100145.31;;;18.20;93.90
23679;BME280;12016;51.668;6.874;2022-09-29T15:34:40;100143.44;;;18.17;97.34
23679;BME280;12016;51.668;6.874;2022-09-29T15:40:42;100145.78;;;18.18;96.96
23679;BME280;12016;51.668;6.874;2022-09-29T15:46:55;100153.38;;;18.18;97.46
23679;BME280;12016;51.668;6.874;2022-09-29T15:52:58;100161.00;;;18.05;98.19
23679;BME280;12016;51.668;6.874;2022-09-29T15:59:03;100164.34;;;18.00;99.33
23679;BME280;12016;51.668;6.874;2022-09-29T16:05:12;100165.78;;;17.92;100.00
23679;BME280;12016;51.668;6.874;2022-09-29T16:11:22;100180.00;;;17.85;100.00
23679;BME280;12016;51.668;6.874;2022-09-29T16:17:26;100181.53;;;17.73;100.00
23679;BME280;12016;51.668;6.874;2022-09-29T16:23:35;100189.47;;;17.75;100.00
23679;BME280;12016;51.668;6.874;2022-09-29T16:29:38;100196.41;;;17.70;100.00
23679;BME280;12016;51.668;6.874;2022-09-29T16:36:05;100206.81;;;17.70;100.00
23679;BME280;12016;51.668;6.874;2022-09-29T16:42:18;100214.63;;;17.46;100.00
23679;BME280;12016;51.668;6.874;2022-09-29T16:48:22;100226.25;;;17.28;100.00
23679;BME280;12016;51.668;6.874;2022-09-29T16:54:28;100235.69;;;17.02;100.00
23679;BME280;12016;51.668;6.874;2022-09-29T17:00:34;100244.06;;;16.86;100.00
23679;BME280;12016;51.668;6.874;2022-09-29T17:06:42;100244.56;;;16.65;100.00
23679;BME280;12016;51.668;6.874;2022-09-29T17:12:45;100247.44;;;16.42;100.00
23679;BME280;12016;51.668;6.874;2022-09-29T17:18:49;100252.66;;;16.20;100.00
23679;BME280;12016;51.668;6.874;2022-09-29T17:24:51;100254.59;;;16.04;100.00
23679;BME280;12016;51.668;6.874;2022-09-29T17:30:53;100251.50;;;15.79;100.00
23679;BME280;12016;51.668;6.874;2022-09-29T17:36:58;100261.84;;;15.59;100.00
23679;BME280;12016;51.668;6.874;2022-09-29T17:43:00;100278.84;;;15.45;100.00
23679;BME280;12016;51.668;6.874;2022-09-29T20:59:56;100535.72;;;11.57;100.00
23679;BME280;12016;51.668;6.874;2022-09-29T21:05:57;100544.00;;;11.54;100.00
23679;BME280;12016;51.668;6.874;2022-09-29T21:11:59;100541.63;;;11.52;100.00
23679;BME280;12016;51.668;6.874;2022-09-29T21:18:03;100546.38;;;11.48;100.00
23679;BME280;12016;51.668;6.874;2022-09-29T21:24:05;100546.78;;;11.47;100.00
23679;BME280;12016;51.668;6.874;2022-09-29T21:30:08;100551.50;;;11.39;100.00
23679;BME280;12016;51.668;6.874;2022-09-29T21:36:12;100553.03;;;11.30;100.00
23679;BME280;12016;51.668;6.874;2022-09-29T21:42:16;100556.16;;;11.21;100.00
23679;BME280;12016;51.668;6.874;2022-09-29T21:48:17;100553.75;;;11.09;100.00
23679;BME280;12016;51.668;6.874;2022-09-29T21:54:21;100555.19;;;10.85;100.00
23679;BME280;12016;51.668;6.874;2022-09-29T22:00:23;100562.28;;;10.79;100.00
23679;BME280;12016;51.668;6.874;2022-09-29T22:06:27;100567.47;;;10.88;100.00
23679;BME280;12016;51.668;6.874;2022-09-29T22:12:29;100567.44;;;10.84;100.00
23679;BME280;12016;51.668;6.874;2022-09-29T22:18:32;100568.22;;;10.85;100.00
23679;BME280;12016;51.668;6.874;2022-09-29T22:24:41;100578.94;;;10.86;100.00
23679;BME280;12016;51.668;6.874;2022-09-29T22:30:43;100579.63;;;10.73;100.00
23679;BME280;12016;51.668;6.874;2022-09-29T22:36:46;100576.41;;;10.67;100.00
23679;BME280;12016;51.668;6.874;2022-09-29T22:42:48;100576.38;;;10.64;100.00
23679;BME280;12016;51.668;6.874;2022-09-29T22:48:50;100585.84;;;10.59;100.00
23679;BME280;12016;51.668;6.874;2022-09-29T22:54:52;100583.00;;;10.49;100.00
23679;BME280;12016;51.668;6.874;2022-09-29T23:01:05;100592.03;;;10.39;100.00
23679;BME280;12016;51.668;6.874;2022-09-29T23:07:08;100603.03;;;10.32;100.00
23679;BME280;12016;51.668;6.874;2022-09-29T23:13:10;100598.13;;;10.18;100.00
23679;BME280;12016;51.668;6.874;2022-09-29T23:19:12;100596.59;;;10.21;100.00
23679;BME280;12016;51.668;6.874;2022-09-29T23:25:14;100605.25;;;10.16;100.00
23679;BME280;12016;51.668;6.874;2022-09-29T23:31:16;100598.47;;;10.10;100.00
23679;BME280;12016;51.668;6.874;2022-09-29T23:37:18;100599.56;;;10.05;100.00
23679;BME280;12016;51.668;6.874;2022-09-29T23:43:20;100613.78;;;10.04;100.00
23679;BME280;12016;51.668;6.874;2022-09-29T23:49:24;100597.94;;;10.01;100.00
23679;BME280;12016;51.668;6.874;2022-09-29T23:55:30;100602.50;;;9.83;100.00
